sensor_id;sensor_type;location;lat;lon;timestamp;P1;durP1;ratioP1;P2;durP2;ratioP2
37341;SDS011;58643;49.052;8.518;2023-06-26T10:44:43;8.93;;;5.60;;
37341;SDS011;58643;49.052;8.518;2023-06-26T10:47:11;6.78;;;5.72;;
37341;SDS011;58643;49.052;8.518;2023-06-26T10:49:53;9.15;;;5.80;;
37341;SDS011;58643;49.052;8.518;2023-06-26T10:52:19;8.18;;;5.65;;
37341;SDS011;58643;49.052;8.518;2023-06-26T10:54:44;11.77;;;5.88;;
37341;SDS011;58643;49.052;8.518;2023-06-26T10:57:10;7.90;;;4.93;;
37341;SDS011;58643;49.052;8.518;2023-06-26T10:59:38;7.57;;;5.63;;
37341;SDS011;58643;49.052;8.518;2023-06-26T11:02:05;12.57;;;5.50;;
37341;SDS011;58643;49.052;8.518;2023-06-26T11:04:41;9.70;;;5.28;;
37341;SDS011;58643;49.052;8.518;2023-06-26T11:07:15;8.75;;;4.95;;
37341;SDS011;58643;49.052;8.518;2023-06-26T11:10:01;8.45;;;5.18;;
37341;SDS011;58643;49.052;8.518;2023-06-26T11:15:25;8.48;;;5.43;;
37341;SDS011;58643;49.052;8.518;2023-06-26T11:17:51;9.27;;;5.47;;
37341;SDS011;58643;49.052;8.518;2023-06-26T11:20:18;11.65;;;5.45;;
37341;SDS011;58643;49.052;8.518;2023-06-26T11:22:43;7.10;;;5.45;;
37341;SDS011;58643;49.052;8.518;2023-06-26T11:25:10;7.10;;;4.90;;
37341;SDS011;58643;49.052;8.518;2023-06-26T11:27:42;7.55;;;5.45;;
37341;SDS011;58643;49.052;8.518;2023-06-26T11:30:10;10.07;;;5.32;;
37341;SDS011;58643;49.052;8.518;2023-06-26T11:32:40;7.85;;;5.20;;
37341;SDS011;58643;49.052;8.518;2023-06-26T11:35:05;6.47;;;5.03;;
37341;SDS011;58643;49.052;8.518;2023-06-26T11:37:31;8.95;;;5.28;;
37341;SDS011;58643;49.052;8.518;2023-06-26T11:39:57;9.63;;;5.28;;
37341;SDS011;58643;49.052;8.518;2023-06-26T11:42:23;8.48;;;4.78;;
37341;SDS011;58643;49.052;8.518;2023-06-26T11:44:50;7.38;;;4.95;;
37341;SDS011;58643;49.052;8.518;2023-06-26T11:47:17;9.43;;;5.03;;
37341;SDS011;58643;49.052;8.518;2023-06-26T11:49:48;6.82;;;5.55;;
37341;SDS011;58643;49.052;8.518;2023-06-26T11:52:15;10.57;;;4.65;;
37341;SDS011;58643;49.052;8.518;2023-06-26T11:54:41;6.25;;;5.00;;
37341;SDS011;58643;49.052;8.518;2023-06-26T11:57:07;7.50;;;4.68;;
37341;SDS011;58643;49.052;8.518;2023-06-26T11:59:34;6.93;;;4.65;;
37341;SDS011;58643;49.052;8.518;2023-06-26T12:02:04;7.18;;;4.63;;
37341;SDS011;58643;49.052;8.518;2023-06-26T12:04:34;7.75;;;4.68;;
37341;SDS011;58643;49.052;8.518;2023-06-26T12:07:01;5.20;;;4.32;;
37341;SDS011;58643;49.052;8.518;2023-06-26T12:09:30;8.55;;;4.80;;
37341;SDS011;58643;49.052;8.518;2023-06-26T12:11:58;7.28;;;4.40;;
37341;SDS011;58643;49.052;8.518;2023-06-26T12:14:25;6.68;;;4.72;;
37341;SDS011;58643;49.052;8.518;2023-06-26T12:16:53;7.45;;;4.18;;
37341;SDS011;58643;49.052;8.518;2023-06-26T12:19:24;7.65;;;4.35;;
37341;SDS011;58643;49.052;8.518;2023-06-26T12:21:53;6.05;;;4.18;;
37341;SDS011;58643;49.052;8.518;2023-06-26T12:24:21;6.10;;;3.90;;
37341;SDS011;58643;49.052;8.518;2023-06-26T12:26:51;7.35;;;4.25;;
37341;SDS011;58643;49.052;8.518;2023-06-26T12:29:21;6.47;;;4.20;;
37341;SDS011;58643;49.052;8.518;2023-06-26T12:31:54;5.72;;;3.95;;
37341;SDS011;58643;49.052;8.518;2023-06-26T12:34:21;7.70;;;3.92;;
37341;SDS011;58643;49.052;8.518;2023-06-26T12:36:51;5.53;;;3.80;;
37341;SDS011;58643;49.052;8.518;2023-06-26T12:39:18;5.13;;;3.45;;
37341;SDS011;58643;49.052;8.518;2023-06-26T12:41:47;9.57;;;4.15;;
37341;SDS011;58643;49.052;8.518;2023-06-26T12:44:29;5.18;;;3.42;;
37341;SDS011;58643;49.052;8.518;2023-06-26T12:47:01;5.68;;;3.40;;
37341;SDS011;58643;49.052;8.518;2023-06-26T12:49:34;4.22;;;2.90;;
37341;SDS011;58643;49.052;8.518;2023-06-26T12:52:02;6.82;;;3.30;;
37341;SDS011;58643;49.052;8.518;2023-06-26T12:54:36;6.28;;;3.22;;
37341;SDS011;58643;49.052;8.518;2023-06-26T12:57:03;5.75;;;3.17;;
37341;SDS011;58643;49.052;8.518;2023-06-26T12:59:30;9.15;;;3.30;;
37341;SDS011;58643;49.052;8.518;2023-06-26T13:01:56;8.48;;;3.35;;
37341;SDS011;58643;49.052;8.518;2023-06-26T13:04:22;4.82;;;3.15;;
37341;SDS011;58643;49.052;8.518;2023-06-26T13:06:48;6.07;;;3.22;;
37341;SDS011;58643;49.052;8.518;2023-06-26T13:09:15;5.25;;;3.45;;
37341;SDS011;58643;49.052;8.518;2023-06-26T13:11:41;10.38;;;3.20;;
37341;SDS011;58643;49.052;8.518;2023-06-26T13:14:06;5.80;;;2.97;;
37341;SDS011;58643;49.052;8.518;2023-06-26T13:16:32;8.27;;;3.15;;
37341;SDS011;58643;49.052;8.518;2023-06-26T13:18:58;13.48;;;3.28;;
37341;SDS011;58643;49.052;8.518;2023-06-26T13:21:25;5.22;;;2.90;;
37341;SDS011;58643;49.052;8.518;2023-06-26T13:23:51;4.20;;;2.67;;
37341;SDS011;58643;49.052;8.518;2023-06-26T13:26:17;5.80;;;3.13;;
37341;SDS011;58643;49.052;8.518;2023-06-26T13:28:43;5.80;;;3.15;;
37341;SDS011;58643;49.052;8.518;2023-06-26T13:31:09;13.63;;;3.40;;
37341;SDS011;58643;49.052;8.518;2023-06-26T13:33:35;12.10;;;3.28;;
37341;SDS011;58643;49.052;8.518;2023-06-26T13:36:00;9.20;;;3.38;;
37341;SDS011;58643;49.052;8.518;2023-06-26T13:38:28;7.63;;;3.58;;
37341;SDS011;58643;49.052;8.518;2023-06-26T13:40:54;7.25;;;3.60;;
37341;SDS011;58643;49.052;8.518;2023-06-26T13:43:25;5.72;;;3.55;;
37341;SDS011;58643;49.052;8.518;2023-06-26T13:45:51;7.28;;;3.80;;
37341;SDS011;58643;49.052;8.518;2023-06-26T13:48:17;7.07;;;4.20;;
37341;SDS011;58643;49.052;8.518;2023-06-26T13:50:43;6.28;;;3.70;;
37341;SDS011;58643;49.052;8.518;2023-06-26T13:53:08;9.07;;;4.50;;
37341;SDS011;58643;49.052;8.518;2023-06-26T13:55:34;8.52;;;4.05;;
37341;SDS011;58643;49.052;8.518;2023-06-26T13:58:00;10.00;;;4.85;;
37341;SDS011;58643;49.052;8.518;2023-06-26T14:00:30;10.80;;;4.78;;
37341;SDS011;58643;49.052;8.518;2023-06-26T14:03:00;8.48;;;5.18;;
37341;SDS011;58643;49.052;8.518;2023-06-26T14:05:28;10.15;;;5.07;;
37341;SDS011;58643;49.052;8.518;2023-06-26T14:10:22;8.85;;;5.40;;
37341;SDS011;58643;49.052;8.518;2023-06-26T14:12:48;8.50;;;6.00;;
37341;SDS011;58643;49.052;8.518;2023-06-26T14:15:14;8.05;;;5.80;;
37341;SDS011;58643;49.052;8.518;2023-06-26T14:17:40;7.63;;;5.63;;
37341;SDS011;58643;49.052;8.518;2023-06-26T14:20:06;11.75;;;5.60;;
37341;SDS011;58643;49.052;8.518;2023-06-26T14:22:38;11.23;;;5.90;;
37341;SDS011;58643;49.052;8.518;2023-06-26T14:25:04;10.65;;;5.25;;
37341;SDS011;58643;49.052;8.518;2023-06-26T14:27:31;9.48;;;5.55;;
37341;SDS011;58643;49.052;8.518;2023-06-26T14:29:56;9.75;;;6.13;;
37341;SDS011;58643;49.052;8.518;2023-06-26T14:32:22;11.43;;;5.90;;
37341;SDS011;58643;49.052;8.518;2023-06-26T14:34:47;9.88;;;5.97;;
37341;SDS011;58643;49.052;8.518;2023-06-26T14:37:13;9.15;;;5.88;;
37341;SDS011;58643;49.052;8.518;2023-06-26T14:39:38;11.60;;;6.00;;
37341;SDS011;58643;49.052;8.518;2023-06-26T14:42:04;12.55;;;6.13;;
37341;SDS011;58643;49.052;8.518;2023-06-26T14:44:30;10.63;;;5.15;;
37341;SDS011;58643;49.052;8.518;2023-06-26T14:46:56;6.90;;;4.95;;
37341;SDS011;58643;49.052;8.518;2023-06-26T14:49:21;8.13;;;5.05;;
37341;SDS011;58643;49.052;8.518;2023-06-26T14:51:47;9.77;;;5.00;;
37341;SDS011;58643;49.052;8.518;2023-06-26T14:54:13;7.72;;;4.50;;
37341;SDS011;58643;49.052;8.518;2023-06-26T14:56:38;7.53;;;4.15;;
37341;SDS011;58643;49.052;8.518;2023-06-26T14:59:04;5.72;;;3.80;;
37341;SDS011;58643;49.052;8.518;2023-06-26T15:01:32;6.67;;;4.17;;
37341;SDS011;58643;49.052;8.518;2023-06-26T15:03:58;8.07;;;3.72;;
37341;SDS011;58643;49.052;8.518;2023-06-26T15:06:24;6.47;;;3.60;;
37341;SDS011;58643;49.052;8.518;2023-06-26T15:08:49;6.80;;;3.38;;
37341;SDS011;58643;49.052;8.518;2023-06-26T15:11:15;7.07;;;2.70;;
37341;SDS011;58643;49.052;8.518;2023-06-26T15:13:40;6.45;;;2.53;;
37341;SDS011;58643;49.052;8.518;2023-06-26T15:16:06;7.78;;;2.45;;
37341;SDS011;58643;49.052;8.518;2023-06-26T15:18:32;6.45;;;2.13;;
37341;SDS011;58643;49.052;8.518;2023-06-26T15:20:57;4.55;;;1.52;;
37341;SDS011;58643;49.052;8.518;2023-06-26T15:23:23;4.35;;;1.90;;
37341;SDS011;58643;49.052;8.518;2023-06-26T15:25:48;6.00;;;1.90;;
37341;SDS011;58643;49.052;8.518;2023-06-26T15:28:14;4.55;;;1.50;;
37341;SDS011;58643;49.052;8.518;2023-06-26T15:30:40;3.63;;;1.80;;
37341;SDS011;58643;49.052;8.518;2023-06-26T15:33:05;3.38;;;1.90;;
37341;SDS011;58643;49.052;8.518;2023-06-26T15:35:31;4.75;;;1.70;;
37341;SDS011;58643;49.052;8.518;2023-06-26T15:37:56;3.85;;;1.92;;
37341;SDS011;58643;49.052;8.518;2023-06-26T15:40:22;4.50;;;1.50;;
37341;SDS011;58643;49.052;8.518;2023-06-26T15:42:48;5.72;;;1.55;;
37341;SDS011;58643;49.052;8.518;2023-06-26T15:45:15;3.03;;;1.65;;
37341;SDS011;58643;49.052;8.518;2023-06-26T15:47:47;2.47;;;1.40;;
37341;SDS011;58643;49.052;8.518;2023-06-26T15:50:13;2.65;;;1.70;;
37341;SDS011;58643;49.052;8.518;2023-06-26T15:52:38;6.63;;;2.10;;
37341;SDS011;58643;49.052;8.518;2023-06-26T15:55:04;5.55;;;1.60;;
37341;SDS011;58643;49.052;8.518;2023-06-26T15:57:31;5.22;;;1.75;;
37341;SDS011;58643;49.052;8.518;2023-06-26T15:59:57;6.22;;;2.03;;
37341;SDS011;58643;49.052;8.518;2023-06-26T16:02:23;3.92;;;1.85;;
37341;SDS011;58643;49.052;8.518;2023-06-26T16:04:49;9.20;;;2.28;;
37341;SDS011;58643;49.052;8.518;2023-06-26T16:07:15;6.35;;;1.92;;
37341;SDS011;58643;49.052;8.518;2023-06-26T16:09:40;5.07;;;1.63;;
37341;SDS011;58643;49.052;8.518;2023-06-26T16:12:06;6.80;;;1.90;;
37341;SDS011;58643;49.052;8.518;2023-06-26T16:14:32;6.53;;;2.13;;
37341;SDS011;58643;49.052;8.518;2023-06-26T16:16:57;6.45;;;1.70;;
37341;SDS011;58643;49.052;8.518;2023-06-26T16:19:24;3.50;;;1.85;;
37341;SDS011;58643;49.052;8.518;2023-06-26T16:21:49;4.03;;;1.83;;
37341;SDS011;58643;49.052;8.518;2023-06-26T16:24:15;5.32;;;2.10;;
37341;SDS011;58643;49.052;8.518;2023-06-26T16:26:41;6.63;;;2.05;;
37341;SDS011;58643;49.052;8.518;2023-06-26T16:29:06;3.95;;;2.00;;
37341;SDS011;58643;49.052;8.518;2023-06-26T16:31:32;4.57;;;2.05;;
37341;SDS011;58643;49.052;8.518;2023-06-26T16:33:57;4.72;;;1.77;;
37341;SDS011;58643;49.052;8.518;2023-06-26T16:36:23;7.13;;;1.55;;
37341;SDS011;58643;49.052;8.518;2023-06-26T16:38:48;4.18;;;1.50;;
37341;SDS011;58643;49.052;8.518;2023-06-26T16:41:14;5.95;;;1.92;;
